Time;durP1;ratioP1;P1;durP2;ratioP2;P2;SDS_P1;SDS_P2;PMS_P1;PMS_P2;Temp;Humidity;BMP_temperature;BMP_pressure;BME280_temperature;BME280_humidity;BME280_pressure;Samples;Min_cycle;Max_cycle;Signal;HPM_P1;HPM_P2
2022/06/21 00:01:26;;;;;;;10.98;4.20;;;12.40;99.90;;;;;;5028695;28;20106;-50
2022/06/21 00:03:51;;;;;;;8.63;4.18;;;12.40;99.90;;;;;;5029062;28;20053;-47
2022/06/21 00:06:22;;;;;;;12.80;4.82;;;12.40;99.90;;;;;;5029265;28;20378;-51
2022/06/21 00:08:48;;;;;;;10.95;4.53;;;12.40;99.90;;;;;;5027880;28;20566;-48
2022/06/21 00:11:28;;;;;;;10.98;5.10;;;12.40;99.90;;;;;;5028397;28;20116;-47
2022/06/21 00:13:54;;;;;;;6.57;5.13;;;12.30;99.90;;;;;;5028872;28;20033;-48
2022/06/21 00:16:21;;;;;;;10.35;5.20;;;12.40;99.90;;;;;;5027537;28;20048;-48
2022/06/21 00:18:48;;;;;;;18.02;5.82;;;12.30;99.90;;;;;;5029133;28;20029;-47
2022/06/21 00:21:18;;;;;;;11.35;5.10;;;12.30;99.90;;;;;;5028274;28;20040;-49
2022/06/21 00:23:44;;;;;;;9.53;4.97;;;12.30;99.90;;;;;;5029188;28;20029;-47
2022/06/21 00:26:12;;;;;;;8.65;4.40;;;12.20;99.90;;;;;;5029161;28;20629;-48
2022/06/21 00:28:39;;;;;;;12.38;5.25;;;12.20;99.90;;;;;;5028702;28;20031;-49
2022/06/21 00:31:14;;;;;;;9.52;4.85;;;12.30;99.90;;;;;;5028167;28;20026;-47
2022/06/21 00:33:39;;;;;;;8.38;4.82;;;12.20;99.90;;;;;;5028964;28;20025;-47
2022/06/21 00:36:29;;;;;;;11.80;4.82;;;12.20;99.90;;;;;;5029068;28;20033;-49
2022/06/21 00:38:56;;;;;;;13.27;4.68;;;12.20;99.90;;;;;;5029092;28;20176;-47
2022/06/21 00:41:45;;;;;;;14.50;4.85;;;12.10;99.90;;;;;;5028031;28;20264;-47
2022/06/21 00:44:15;;;;;;;10.77;5.00;;;12.10;99.90;;;;;;5028618;28;20032;-47
2022/06/21 00:46:49;;;;;;;;;;;12.10;99.90;;;;;;5029135;28;20037;-46
2022/06/21 00:49:27;;;;;;;12.93;5.13;;;12.10;99.90;;;;;;5027329;28;20047;-47
2022/06/21 00:51:58;;;;;;;12.68;4.50;;;12.00;99.90;;;;;;5028168;28;20021;-47
2022/06/21 00:54:33;;;;;;;14.93;5.22;;;12.00;99.90;;;;;;5027449;28;20028;-48
2022/06/21 00:57:10;;;;;;;11.25;5.47;;;12.00;99.90;;;;;;5028730;28;20033;-48
2022/06/21 00:59:38;;;;;;;15.52;5.30;;;12.00;99.90;;;;;;5027892;28;20029;-47
2022/06/21 01:02:14;;;;;;;15.50;5.15;;;11.90;99.90;;;;;;5030589;28;20026;-47
2022/06/21 01:04:45;;;;;;;11.25;4.80;;;11.90;99.90;;;;;;5032548;28;20498;-48
2022/06/21 01:07:12;;;;;;;10.10;5.05;;;11.90;99.90;;;;;;5032603;28;20513;-47
2022/06/21 01:09:48;;;;;;;11.23;5.03;;;11.90;99.90;;;;;;5031648;28;20029;-47
2022/06/21 01:12:29;;;;;;;12.82;5.13;;;11.90;99.90;;;;;;5032346;28;20021;-47
2022/06/21 01:15:00;;;;;;;8.27;5.57;;;11.90;99.90;;;;;;5031065;28;20029;-46
2022/06/21 01:17:28;;;;;;;13.48;5.53;;;11.90;99.90;;;;;;5031118;28;20017;-47
2022/06/21 01:20:01;;;;;;;10.38;5.13;;;11.90;99.90;;;;;;5030541;28;20025;-47
2022/06/21 01:22:53;;;;;;;12.82;5.20;;;11.90;99.90;;;;;;5032167;28;20037;-46
2022/06/21 01:25:43;;;;;;;11.43;5.47;;;11.80;99.90;;;;;;5032295;28;20013;-46
2022/06/21 01:28:10;;;;;;;11.00;4.95;;;11.80;99.90;;;;;;5032262;28;20116;-47
2022/06/21 01:30:36;;;;;;;10.50;5.43;;;11.80;99.90;;;;;;5031596;28;20029;-46
2022/06/21 01:33:03;;;;;;;14.15;5.63;;;11.70;99.90;;;;;;5030789;28;20041;-47
2022/06/21 01:35:39;;;;;;;9.68;5.18;;;11.80;99.90;;;;;;5031961;28;20064;-48
2022/06/21 01:38:06;;;;;;;24.90;6.25;;;11.70;99.90;;;;;;5032364;28;20486;-48
2022/06/21 01:40:39;;;;;;;13.65;5.07;;;11.70;99.90;;;;;;5031613;28;20032;-46
2022/06/21 01:43:09;;;;;;;11.63;5.15;;;11.70;99.90;;;;;;5031901;28;20025;-47
2022/06/21 01:45:50;;;;;;;12.63;6.23;;;11.70;99.90;;;;;;5032392;28;20017;-47
2022/06/21 01:48:23;;;;;;;14.60;5.15;;;11.60;99.90;;;;;;5031930;28;20037;-47
2022/06/21 01:50:53;;;;;;;12.65;5.25;;;11.60;99.90;;;;;;5031241;28;20467;-47
2022/06/21 01:53:21;;;;;;;11.30;5.93;;;11.60;99.90;;;;;;5031981;28;20113;-47
2022/06/21 01:55:52;;;;;;;14.50;5.07;;;11.60;99.90;;;;;;5031946;28;20030;-47
2022/06/21 01:58:22;;;;;;;15.75;6.60;;;11.60;99.90;;;;;;5031268;28;20126;-47
2022/06/21 02:00:55;;;;;;;16.70;5.82;;;11.60;99.90;;;;;;5030916;28;20279;-46
2022/06/21 02:03:25;;;;;;;15.75;5.55;;;11.60;99.90;;;;;;5031237;28;20303;-47
2022/06/21 02:05:55;;;;;;;15.88;5.68;;;11.60;99.90;;;;;;5031488;28;20013;-47
2022/06/21 02:08:25;;;;;;;16.33;5.53;;;11.50;99.90;;;;;;5031316;28;20048;-46
2022/06/21 02:10:56;;;;;;;10.07;5.03;;;11.50;99.90;;;;;;5030517;28;20044;-47
2022/06/21 02:13:39;;;;;;;12.57;5.72;;;11.50;99.90;;;;;;5030404;28;20039;-47
2022/06/21 02:16:18;;;;;;;13.60;5.13;;;11.50;99.90;;;;;;5031121;28;20034;-47
2022/06/21 02:18:50;;;;;;;11.18;5.03;;;11.40;99.90;;;;;;5031245;28;20052;-46
2022/06/21 02:21:24;;;;;;;11.77;5.63;;;11.50;99.90;;;;;;5030387;28;20398;-47
2022/06/21 02:23:52;;;;;;;12.00;5.78;;;11.50;99.90;;;;;;5031131;28;20526;-48
2022/06/21 02:26:19;;;;;;;14.35;5.80;;;11.40;99.90;;;;;;5031039;28;20026;-49
2022/06/21 02:28:46;;;;;;;13.90;4.93;;;11.40;99.90;;;;;;5031078;28;20026;-46
2022/06/21 02:31:12;;;;;;;15.35;5.22;;;11.30;99.90;;;;;;5030505;28;20018;-48
2022/06/21 02:33:40;;;;;;;16.65;5.80;;;11.30;99.90;;;;;;5030950;28;20244;-46
2022/06/21 02:36:13;;;;;;;14.80;5.15;;;11.30;99.90;;;;;;5031058;28;20034;-47
2022/06/21 02:38:49;;;;;;;15.75;5.05;;;11.30;99.90;;;;;;5030917;28;20036;-47
2022/06/21 02:41:32;;;;;;;16.58;5.40;;;11.30;99.90;;;;;;5030244;28;20491;-47
2022/06/21 02:44:06;;;;;;;17.25;6.35;;;11.20;99.90;;;;;;5029385;28;20422;-47
2022/06/21 02:46:36;;;;;;;11.63;5.63;;;11.10;99.90;;;;;;5030526;28;20482;-47
2022/06/21 02:49:17;;;;;;;18.43;5.53;;;11.20;99.90;;;;;;5029218;28;20029;-47
2022/06/21 02:51:49;;;;;;;9.07;5.47;;;11.20;99.90;;;;;;5029877;28;20260;-46
2022/06/21 02:54:18;;;;;;;12.68;5.55;;;11.10;99.90;;;;;;5030412;28;20080;-46
2022/06/21 02:56:55;;;;;;;11.50;5.65;;;11.10;99.90;;;;;;5030311;28;20495;-48
2022/06/21 02:59:21;;;;;;;14.07;6.60;;;11.10;99.90;;;;;;5030425;28;20061;-48
2022/06/21 03:01:51;;;;;;;12.65;6.38;;;11.10;99.90;;;;;;5028531;28;20053;-46
2022/06/21 03:04:30;;;;;;;16.93;5.97;;;11.10;99.90;;;;;;5030298;28;20036;-47
2022/06/21 03:06:56;;;;;;;12.68;5.55;;;11.10;99.90;;;;;;5028898;28;20028;-49
2022/06/21 03:09:23;;;;;;;11.38;5.65;;;11.10;99.90;;;;;;5030187;28;20021;-49
2022/06/21 03:11:55;;;;;;;13.10;5.35;;;11.00;99.90;;;;;;5028396;28;20029;-47
2022/06/21 03:14:27;;;;;;;11.32;6.25;;;11.10;99.90;;;;;;5030185;28;20025;-48
2022/06/21 03:16:54;;;;;;;13.32;5.47;;;11.00;99.90;;;;;;5030083;28;20032;-47
2022/06/21 03:19:29;;;;;;;15.55;5.82;;;11.00;99.90;;;;;;5028900;28;20121;-46
2022/06/21 03:21:55;;;;;;;13.45;5.88;;;11.00;99.90;;;;;;5029886;28;20021;-50
2022/06/21 03:24:24;;;;;;;13.68;6.32;;;11.00;99.90;;;;;;5029822;28;20065;-51
2022/06/21 03:27:15;;;;;;;17.13;6.68;;;11.00;99.90;;;;;;5028588;28;20554;-51
2022/06/21 03:29:41;;;;;;;10.02;5.75;;;10.90;99.90;;;;;;5029699;28;20036;-50
2022/06/21 03:32:07;;;;;;;17.35;6.90;;;10.90;99.90;;;;;;5028654;28;20371;-48
2022/06/21 03:34:34;;;;;;;14.40;5.60;;;10.90;99.90;;;;;;5029715;28;20033;-50
2022/06/21 03:37:00;;;;;;;12.68;5.82;;;11.00;99.90;;;;;;5020885;28;20037;-50
2022/06/21 03:42:17;;;;;;;13.95;6.32;;;11.00;99.90;;;;;;5021291;28;20483;-47
2022/06/21 03:44:48;;;;;;;14.90;4.93;;;11.00;99.90;;;;;;5020508;28;20485;-47
2022/06/21 03:47:16;;;;;;;;;;;10.90;99.90;;;;;;5021610;28;20021;-48
2022/06/21 03:49:53;;;;;;;13.52;5.78;;;11.00;99.90;;;;;;5015409;28;20287;-47
2022/06/21 03:52:42;;;;;;;13.40;6.32;;;11.00;99.90;;;;;;5009433;28;20571;-47
2022/06/21 03:55:16;;;;;;;16.30;6.53;;;11.00;99.90;;;;;;5009668;28;20093;-48
2022/06/21 03:57:47;;;;;;;13.00;5.60;;;11.00;99.90;;;;;;5009460;28;20029;-47
2022/06/21 04:00:14;;;;;;;17.98;6.00;;;11.10;99.90;;;;;;5009015;28;20555;-47
2022/06/21 04:02:47;;;;;;;16.00;5.68;;;11.10;99.90;;;;;;5008049;28;20495;-51
2022/06/21 04:05:24;;;;;;;15.00;6.22;;;11.10;99.90;;;;;;5009795;28;20049;-47
2022/06/21 04:07:58;;;;;;;14.60;5.97;;;11.10;99.90;;;;;;5009648;28;20559;-47
2022/06/21 04:10:44;;;;;;;14.98;6.57;;;11.10;99.90;;;;;;5011334;28;20435;-48
2022/06/21 04:13:34;;;;;;;21.17;6.10;;;11.10;99.90;;;;;;5029069;28;20446;-47
2022/06/21 04:16:00;;;;;;;10.85;5.93;;;11.20;99.90;;;;;;5021163;28;20125;-47
2022/06/21 04:18:40;;;;;;;22.80;6.18;;;11.20;99.90;;;;;;5009135;28;20109;-47
2022/06/21 04:21:15;;;;;;;16.05;5.65;;;11.20;99.90;;;;;;5014252;28;20394;-47
2022/06/21 04:23:57;;;;;;;18.58;6.10;;;11.30;99.90;;;;;;5025745;28;20322;-47
2022/06/21 04:26:35;;;;;;;13.27;6.13;;;11.30;99.90;;;;;;5028897;28;20036;-48
2022/06/21 04:29:21;;;;;;;19.88;5.88;;;11.40;99.90;;;;;;5014314;28;20025;-47
2022/06/21 04:31:53;;;;;;;12.38;5.45;;;11.40;99.90;;;;;;5022727;28;20025;-47
2022/06/21 04:34:29;;;;;;;16.63;6.25;;;11.40;99.90;;;;;;5017358;28;20060;-47
2022/06/21 04:37:07;;;;;;;16.88;5.75;;;11.40;99.90;;;;;;5023343;28;20037;-47
2022/06/21 04:39:59;;;;;;;13.60;5.43;;;11.40;99.90;;;;;;5023287;28;20025;-47
2022/06/21 04:42:44;;;;;;;16.95;6.28;;;11.40;99.90;;;;;;5024299;28;20033;-47
2022/06/21 04:45:20;;;;;;;26.23;6.10;;;11.50;99.90;;;;;;5027910;28;20022;-47
2022/06/21 04:47:51;;;;;;;17.25;5.95;;;11.50;99.90;;;;;;5028838;28;20173;-48
2022/06/21 04:50:36;;;;;;;12.75;6.40;;;11.60;99.90;;;;;;5028334;28;20171;-49
2022/06/21 04:53:14;;;;;;;11.35;6.07;;;11.70;99.90;;;;;;5028602;28;20456;-47
2022/06/21 04:56:01;;;;;;;11.38;5.50;;;11.70;99.90;;;;;;5028594;28;20025;-48
2022/06/21 04:58:26;;;;;;;12.65;5.20;;;11.80;99.90;;;;;;5028714;28;20471;-48
2022/06/21 05:00:53;;;;;;;18.92;5.90;;;11.80;99.90;;;;;;5028061;28;20116;-47
2022/06/21 05:03:27;;;;;;;20.33;5.97;;;11.90;99.90;;;;;;5028328;28;20128;-50
2022/06/21 05:05:53;;;;;;;16.48;5.53;;;11.90;99.90;;;;;;5028376;28;20025;-47
2022/06/21 05:08:23;;;;;;;16.17;6.13;;;11.90;99.90;;;;;;5028471;28;20018;-48
2022/06/21 05:10:54;;;;;;;11.43;6.00;;;12.00;99.90;;;;;;5026413;28;20044;-47
2022/06/21 05:13:37;;;;;;;14.20;5.75;;;12.10;99.90;;;;;;5026950;28;20076;-49
2022/06/21 05:16:11;;;;;;;22.27;7.00;;;12.10;99.90;;;;;;5022576;28;20021;-47
2022/06/21 05:18:45;;;;;;;24.10;6.18;;;12.20;99.90;;;;;;5027328;28;20065;-47
2022/06/21 05:21:15;;;;;;;12.80;5.32;;;12.20;99.90;;;;;;5026650;28;20025;-49
2022/06/21 05:23:41;;;;;;;28.73;6.82;;;12.30;99.90;;;;;;5027478;28;20025;-47
2022/06/21 05:26:18;;;;;;;15.65;5.68;;;12.40;99.90;;;;;;5027296;28;20022;-47
2022/06/21 05:28:55;;;;;;;11.38;5.43;;;12.40;99.90;;;;;;5027550;28;20060;-48
2022/06/21 05:31:24;;;;;;;25.73;7.65;;;12.40;99.90;;;;;;5026844;28;20030;-47
2022/06/21 05:34:00;;;;;;;20.35;4.97;;;12.30;99.90;;;;;;5027462;28;20553;-49
2022/06/21 05:36:40;;;;;;;15.60;5.50;;;12.40;99.90;;;;;;5027274;28;20376;-49
2022/06/21 05:39:14;;;;;;;18.45;5.68;;;12.40;99.90;;;;;;5023148;28;20061;-47
2022/06/21 05:41:43;;;;;;;19.58;5.55;;;12.40;99.90;;;;;;5024754;28;20116;-47
2022/06/21 05:44:12;;;;;;;16.17;5.45;;;12.40;99.90;;;;;;5027394;28;20076;-48
2022/06/21 05:46:47;;;;;;;16.02;4.60;;;12.50;99.90;;;;;;5027256;28;20022;-47
2022/06/21 05:49:33;;;;;;;17.17;5.40;;;12.50;99.90;;;;;;5030256;28;20017;-48
2022/06/21 05:52:03;;;;;;;15.30;5.43;;;12.60;99.90;;;;;;5031375;28;20087;-50
2022/06/21 05:54:41;;;;;;;13.98;5.30;;;12.60;99.90;;;;;;5030771;28;20118;-47
2022/06/21 05:57:12;;;;;;;19.45;5.57;;;12.70;99.90;;;;;;5031130;28;20048;-49
2022/06/21 05:59:37;;;;;;;19.30;5.43;;;12.70;99.90;;;;;;5030455;28;20665;-48
2022/06/21 06:02:10;;;;;;;15.35;5.35;;;12.70;99.90;;;;;;5030648;28;20029;-47
2022/06/21 06:04:43;;;;;;;15.18;4.85;;;12.70;99.90;;;;;;5030650;28;20060;-47
2022/06/21 06:07:25;;;;;;;16.65;4.15;;;12.70;99.90;;;;;;5030496;28;20034;-50
2022/06/21 06:09:56;;;;;;;18.35;5.18;;;12.80;99.90;;;;;;5030235;28;20518;-47
2022/06/21 06:12:26;;;;;;;11.00;4.03;;;12.90;99.90;;;;;;5029361;28;20084;-48
2022/06/21 06:15:07;;;;;;;13.70;4.80;;;12.90;99.90;;;;;;5030763;28;20071;-50
2022/06/21 06:17:55;;;;;;;14.27;4.32;;;12.90;99.90;;;;;;5030921;28;20440;-47
2022/06/21 06:20:38;;;;;;;25.20;11.73;;;13.00;99.90;;;;;;5029959;28;20021;-47
2022/06/21 06:23:34;;;;;;;17.38;7.90;;;13.10;99.90;;;;;;5030387;28;20048;-47
2022/06/21 06:26:04;;;;;;;12.93;4.80;;;13.20;99.90;;;;;;5027278;28;20087;-48
2022/06/21 06:29:07;;;;;;;17.27;4.00;;;13.30;99.90;;;;;;5030345;28;20109;-47
2022/06/21 06:31:47;;;;;;;16.15;4.00;;;13.30;99.90;;;;;;5026355;28;20380;-47
2022/06/21 06:34:17;;;;;;;14.52;3.47;;;13.40;99.90;;;;;;5029424;28;20018;-49
2022/06/21 06:36:47;;;;;;;10.10;3.53;;;13.50;99.90;;;;;;5028565;28;20120;-48
2022/06/21 06:39:24;;;;;;;;;;;13.60;99.90;;;;;;5030271;28;20674;-48
2022/06/21 06:42:14;;;;;;;13.45;4.10;;;13.70;99.90;;;;;;5025782;28;20037;-47
2022/06/21 06:44:56;;;;;;;16.30;3.75;;;13.70;99.90;;;;;;5029982;28;20056;-49
2022/06/21 06:47:30;;;;;;;17.42;3.90;;;13.90;99.90;;;;;;5028207;28;20029;-47
2022/06/21 06:50:25;;;;;;;15.07;3.60;;;14.00;99.90;;;;;;5029475;28;20105;-49
2022/06/21 06:52:56;;;;;;;12.13;4.28;;;14.00;99.90;;;;;;5026418;28;20083;-47
2022/06/21 06:55:44;;;;;;;17.13;4.97;;;14.10;99.90;;;;;;5029600;28;20033;-47
2022/06/21 06:58:32;;;;;;;23.60;4.88;;;14.20;99.90;;;;;;5029851;28;20026;-47
2022/06/21 07:01:03;;;;;;;19.33;4.78;;;14.30;99.90;;;;;;5029433;28;20390;-48
2022/06/21 07:03:38;;;;;;;17.38;4.38;;;14.40;99.90;;;;;;5029243;28;20276;-47
2022/06/21 07:06:13;;;;;;;15.90;3.67;;;14.60;99.90;;;;;;5029398;28;20038;-48
2022/06/21 07:08:59;;;;;;;9.63;3.60;;;14.70;99.90;;;;;;5029711;28;20068;-47
2022/06/21 07:11:50;;;;;;;16.15;3.58;;;14.80;99.90;;;;;;5025911;28;20037;-48
2022/06/21 07:14:20;;;;;;;16.50;3.75;;;14.90;99.90;;;;;;5029646;28;20398;-47
2022/06/21 07:16:49;;;;;;;13.07;4.07;;;15.00;99.90;;;;;;5029358;28;20029;-46
2022/06/21 07:19:15;;;;;;;12.95;4.18;;;15.10;99.90;;;;;;5026625;28;20083;-47
2022/06/21 07:21:41;;;;;;;11.05;3.30;;;15.20;99.90;;;;;;5028794;28;20104;-47
2022/06/21 07:24:15;;;;;;;18.13;3.65;;;15.40;99.90;;;;;;5027665;28;20025;-47
2022/06/21 07:26:51;;;;;;;15.18;3.65;;;15.50;99.90;;;;;;5028696;28;20117;-47
2022/06/21 07:29:29;;;;;;;12.80;3.65;;;15.60;99.90;;;;;;5029088;28;20018;-49
2022/06/21 07:32:22;;;;;;;9.95;3.47;;;15.80;99.90;;;;;;5021950;28;20116;-47
2022/06/21 07:34:56;;;;;;;12.23;3.33;;;16.00;99.90;;;;;;5018755;28;20026;-47
2022/06/21 07:37:52;;;;;;;12.52;3.00;;;16.20;99.90;;;;;;5014013;28;20036;-48
2022/06/21 07:40:34;;;;;;;10.55;3.13;;;16.40;99.90;;;;;;5016235;28;20045;-48
2022/06/21 07:43:22;;;;;;;16.27;4.05;;;16.70;99.90;;;;;;5022419;28;20449;-47
2022/06/21 07:46:00;;;;;;;16.92;3.85;;;16.80;99.90;;;;;;5020151;28;20025;-47
2022/06/21 07:48:43;;;;;;;9.88;3.08;;;16.70;99.90;;;;;;5013879;28;20033;-47
2022/06/21 07:51:22;;;;;;;14.77;3.97;;;16.80;99.90;;;;;;5008642;28;20192;-47
2022/06/21 07:54:14;;;;;;;13.80;3.30;;;17.00;99.90;;;;;;5009315;28;20450;-47
2022/06/21 07:56:46;;;;;;;9.75;3.13;;;17.00;99.90;;;;;;5008807;28;20453;-59
2022/06/21 07:59:22;;;;;;;8.70;2.70;;;17.10;99.90;;;;;;5009090;28;20021;-47
2022/06/21 08:08:00;;;;;;;13.85;3.20;;;17.70;99.90;;;;;;5008910;28;20498;-47
2022/06/21 08:10:42;;;;;;;7.30;2.28;;;17.90;99.90;;;;;;5007805;28;20022;-48
2022/06/21 08:13:09;;;;;;;14.25;3.00;;;18.50;99.90;;;;;;5009549;28;20495;-47
2022/06/21 08:15:42;;;;;;;10.18;2.53;;;20.00;97.50;;;;;;5008903;28;20026;-50
2022/06/21 08:18:27;;;;;;;11.27;2.67;;;21.10;95.00;;;;;;5009666;28;20025;-49
2022/06/21 08:21:01;;;;;;;9.70;2.55;;;22.20;92.70;;;;;;5009019;28;20049;-48
2022/06/21 08:23:59;;;;;;;7.78;2.33;;;22.70;90.30;;;;;;5009374;28;20032;-50
2022/06/21 08:26:30;;;;;;;9.15;2.30;;;23.00;85.90;;;;;;5009266;28;20117;-46
2022/06/21 08:29:08;;;;;;;6.75;2.22;;;23.30;83.00;;;;;;5009149;28;20026;-43
2022/06/21 08:31:41;;;;;;;5.78;2.00;;;23.60;82.00;;;;;;5008457;28;20373;-45
2022/06/21 08:34:26;;;;;;;7.15;2.10;;;24.50;76.90;;;;;;5008986;28;20061;-46
2022/06/21 08:36:56;;;;;;;6.00;2.33;;;24.30;75.50;;;;;;5008995;28;20192;-45
2022/06/21 08:39:41;;;;;;;7.88;2.20;;;24.30;73.70;;;;;;5007660;28;20021;-44
2022/06/21 08:42:30;;;;;;;8.88;2.33;;;24.10;73.70;;;;;;5022446;28;20036;-44
2022/06/21 08:45:43;;;;;;;8.50;2.20;;;24.40;72.70;;;;;;5021264;28;20030;-45
2022/06/21 08:48:20;;;;;;;6.30;1.98;;;25.70;68.30;;;;;;5023851;28;20033;-46
2022/06/21 08:51:12;;;;;;;8.13;2.55;;;26.70;67.40;;;;;;5027338;28;20591;-46
2022/06/21 08:53:45;;;;;;;6.80;2.10;;;27.80;63.70;;;;;;5025499;28;20040;-48
2022/06/21 08:56:20;;;;;;;7.90;2.28;;;28.30;61.30;;;;;;5023584;28;20041;-49
2022/06/21 08:59:09;;;;;;;4.25;1.73;;;28.50;57.30;;;;;;5011762;28;20032;-46
2022/06/21 09:01:51;;;;;;;8.10;2.50;;;29.10;57.60;;;;;;5016632;28;20120;-46
2022/06/21 09:04:53;;;;;;;6.25;2.00;;;29.50;57.50;;;;;;5019509;28;20029;-46
2022/06/21 09:07:34;;;;;;;9.15;2.30;;;28.00;57.20;;;;;;5017197;28;20025;-46
2022/06/21 09:10:32;;;;;;;6.93;2.25;;;28.30;57.70;;;;;;5016518;28;20041;-45
2022/06/21 09:13:20;;;;;;;6.25;2.33;;;28.80;57.00;;;;;;5022282;28;20044;-49
2022/06/21 09:16:18;;;;;;;5.63;2.38;;;29.20;57.00;;;;;;5025145;28;20033;-47
2022/06/21 09:19:20;;;;;;;6.32;2.13;;;29.80;56.90;;;;;;5026923;28;20030;-49
2022/06/21 09:22:04;;;;;;;8.27;2.30;;;29.50;53.10;;;;;;5025733;28;20042;-48
2022/06/21 09:24:41;;;;;;;7.80;2.35;;;29.20;52.90;;;;;;5014660;28;20372;-45
2022/06/21 09:27:27;;;;;;;8.25;2.60;;;29.70;53.70;;;;;;5011841;28;20077;-44
2022/06/21 09:30:18;;;;;;;6.97;2.10;;;29.60;52.50;;;;;;5011117;28;20034;-45
2022/06/21 09:32:54;;;;;;;7.68;2.17;;;28.60;53.70;;;;;;5011860;28;20494;-48
2022/06/21 09:35:49;;;;;;;9.00;2.50;;;29.30;54.30;;;;;;5011349;28;20123;-45
2022/06/21 09:38:50;;;;;;;8.10;2.72;;;30.10;52.10;;;;;;5011355;28;20120;-47
2022/06/21 09:41:28;;;;;;;6.13;2.13;;;30.10;53.10;;;;;;5009890;28;20026;-48
2022/06/21 09:44:19;;;;;;;4.50;2.10;;;31.10;50.60;;;;;;5022076;28;20131;-45
2022/06/21 09:47:04;;;;;;;7.15;2.30;;;30.80;51.30;;;;;;5030313;28;20120;-45
2022/06/21 09:50:04;;;;;;;7.15;2.22;;;31.20;49.00;;;;;;5030549;28;20273;-44
2022/06/21 09:52:56;;;;;;;9.73;2.05;;;31.20;49.40;;;;;;5030862;28;20033;-45
2022/06/21 09:55:51;;;;;;;6.97;2.05;;;31.70;50.90;;;;;;5030670;28;20020;-45
2022/06/21 09:58:26;;;;;;;5.90;2.33;;;32.00;48.20;;;;;;5031090;28;20017;-46
2022/06/21 10:00:55;;;;;;;10.40;2.33;;;31.10;48.20;;;;;;5023527;28;20041;-46
2022/06/21 10:03:45;;;;;;;6.68;2.20;;;31.00;48.20;;;;;;5022250;28;20113;-45
2022/06/21 10:06:28;;;;;;;6.75;2.38;;;32.00;48.60;;;;;;5023548;28;20033;-45
2022/06/21 10:09:44;;;;;;;4.18;1.60;;;32.70;48.50;;;;;;5022328;28;20110;-45
2022/06/21 10:12:35;;;;;;;6.20;2.13;;;32.20;45.90;;;;;;5023486;28;20068;-46
2022/06/21 10:15:24;;;;;;;10.63;2.55;;;32.30;47.00;;;;;;5023516;28;20510;-45
2022/06/21 10:17:55;;;;;;;7.10;2.03;;;32.40;46.70;;;;;;5023430;28;20022;-48
2022/06/21 10:20:41;;;;;;;7.32;2.10;;;32.50;47.10;;;;;;5022802;28;20017;-46
2022/06/21 10:23:34;;;;;;;6.60;2.15;;;32.50;47.20;;;;;;5024093;28;20633;-51
2022/06/21 10:26:27;;;;;;;8.80;2.30;;;32.50;47.30;;;;;;5022578;28;20041;-46
2022/06/21 10:29:07;;;;;;;7.30;1.92;;;32.60;45.40;;;;;;5023227;28;20049;-49
2022/06/21 10:31:51;;;;;;;7.22;2.33;;;32.40;48.20;;;;;;5020363;28;20022;-46
2022/06/21 10:34:34;;;;;;;5.85;1.98;;;32.50;47.80;;;;;;5020272;28;20034;-48
2022/06/21 10:37:23;;;;;;;7.28;2.50;;;32.20;46.90;;;;;;5053070;28;20470;-47
2022/06/21 10:39:58;;;;;;;6.70;2.30;;;32.80;46.30;;;;;;5022484;28;20728;-47
2022/06/21 10:42:56;;;;;;;4.15;1.80;;;32.70;44.60;;;;;;5022877;28;20026;-49
2022/06/21 10:45:41;;;;;;;7.25;2.47;;;32.00;45.00;;;;;;5022736;28;20057;-46
2022/06/21 10:48:25;;;;;;;4.25;1.73;;;32.30;46.20;;;;;;5022661;28;20053;-46
2022/06/21 10:51:06;;;;;;;7.63;2.25;;;32.40;45.40;;;;;;5022130;28;20029;-47
2022/06/21 10:54:01;;;;;;;4.82;1.75;;;31.70;47.00;;;;;;5022715;28;20052;-47
2022/06/21 11:02:54;;;;;;;7.75;2.00;;;33.00;45.20;;;;;;5022893;28;20084;-46
2022/06/21 11:05:48;;;;;;;5.13;1.88;;;32.90;45.00;;;;;;5022565;28;20021;-47
2022/06/21 11:08:30;;;;;;;6.47;2.00;;;32.60;44.60;;;;;;5021566;28;20018;-46
2022/06/21 11:11:18;;;;;;;4.65;1.70;;;32.10;45.10;;;;;;5019824;28;20029;-47
2022/06/21 11:14:15;;;;;;;6.70;1.70;;;31.60;46.10;;;;;;5022649;28;20402;-49
2022/06/21 11:17:07;;;;;;;4.38;1.60;;;31.60;47.00;;;;;;5022381;28;20030;-45
2022/06/21 11:19:57;;;;;;;6.68;1.85;;;32.80;47.60;;;;;;5021776;28;20054;-47
2022/06/21 11:22:57;;;;;;;5.10;1.80;;;33.20;44.80;;;;;;5022471;28;20475;-47
2022/06/21 11:25:44;;;;;;;5.25;1.85;;;33.00;45.70;;;;;;5021102;28;20041;-46
2022/06/21 11:28:18;;;;;;;5.47;1.70;;;33.30;46.10;;;;;;5023267;28;20502;-47
2022/06/21 11:31:07;;;;;;;6.97;2.40;;;33.40;45.40;;;;;;5017689;28;20022;-48
2022/06/21 11:34:15;;;;;;;8.27;2.80;;;33.00;44.20;;;;;;5021687;28;20026;-47
2022/06/21 11:37:07;;;;;;;5.35;1.85;;;32.60;45.70;;;;;;5016450;28;20287;-47
2022/06/21 11:39:40;;;;;;;5.20;1.60;;;32.70;44.70;;;;;;5024088;28;20026;-46
2022/06/21 11:42:16;;;;;;;3.58;1.30;;;33.10;44.90;;;;;;5030930;28;20026;-45
2022/06/21 11:45:19;;;;;;;3.85;1.65;;;32.80;44.70;;;;;;5045657;28;20025;-46
2022/06/21 11:48:01;;;;;;;4.68;1.67;;;32.90;43.80;;;;;;5021483;28;20028;-46
2022/06/21 11:50:34;;;;;;;5.45;1.58;;;33.10;43.60;;;;;;5020923;28;20025;-45
2022/06/21 11:53:18;;;;;;;7.20;1.88;;;33.30;43.70;;;;;;5021262;28;20525;-44
2022/06/21 11:55:49;;;;;;;4.13;1.55;;;32.80;44.60;;;;;;5020608;28;20034;-46
2022/06/21 11:58:27;;;;;;;5.15;1.33;;;32.60;44.60;;;;;;5019652;28;20029;-44
2022/06/21 12:01:11;;;;;;;4.77;1.97;;;32.30;44.60;;;;;;5021329;28;20040;-45
2022/06/21 12:04:15;;;;;;;6.40;1.38;;;32.20;44.80;;;;;;5021020;28;20482;-44
2022/06/21 12:06:56;;;;;;;5.10;1.85;;;30.40;45.40;;;;;;5021166;28;20033;-47
2022/06/21 12:09:41;;;;;;;6.68;1.65;;;29.90;45.20;;;;;;5020677;28;20391;-45
2022/06/21 12:12:22;;;;;;;5.32;2.00;;;29.30;47.60;;;;;;5024159;28;20099;-47
2022/06/21 12:15:20;;;;;;;6.40;1.35;;;29.30;48.60;;;;;;5025428;28;20500;-43
2022/06/21 12:17:58;;;;;;;6.75;1.70;;;29.00;46.90;;;;;;5014994;28;20033;-45
2022/06/21 12:20:37;;;;;;;5.97;1.55;;;28.90;47.00;;;;;;5019378;28;20046;-44
2022/06/21 12:23:27;;;;;;;5.03;1.70;;;28.60;47.80;;;;;;5020904;28;20112;-44
2022/06/21 12:25:53;;;;;;;30.48;17.75;;;28.30;48.00;;;;;;5025626;28;20653;-46
2022/06/21 12:28:23;;;;;;;2.67;1.40;;;28.60;46.30;;;;;;5045513;28;20112;-45
2022/06/21 12:30:50;;;;;;;6.28;1.90;;;27.50;46.60;;;;;;5029522;28;20018;-44
2022/06/21 12:33:19;;;;;;;5.22;1.55;;;27.80;47.50;;;;;;5026778;28;20026;-44
2022/06/21 12:36:13;;;;;;;6.93;1.40;;;27.90;48.30;;;;;;5018613;28;20026;-44
2022/06/21 12:39:09;;;;;;;5.88;1.38;;;27.80;47.50;;;;;;5020011;28;20029;-44
2022/06/21 12:41:37;;;;;;;4.85;1.20;;;27.90;46.50;;;;;;5032767;28;20033;-47
2022/06/21 12:44:12;;;;;;;2.88;1.10;;;27.70;48.40;;;;;;5018256;28;20033;-46
2022/06/21 12:47:04;;;;;;;8.10;1.38;;;27.60;47.70;;;;;;5020437;28;20456;-45
2022/06/21 12:50:20;;;;;;;2.88;1.48;;;27.70;46.10;;;;;;5019627;28;20038;-45
2022/06/21 12:53:01;;;;;;;3.85;1.50;;;27.60;47.90;;;;;;5023395;28;20026;-46
2022/06/21 12:55:34;;;;;;;2.42;1.30;;;27.20;49.00;;;;;;5021069;28;20072;-45
2022/06/21 12:58:04;;;;;;;2.78;1.30;;;27.30;51.40;;;;;;5021015;28;20041;-45
2022/06/21 13:00:44;;;;;;;5.07;1.67;;;27.40;51.30;;;;;;5022164;28;20530;-45
2022/06/21 13:03:40;;;;;;;4.63;1.52;;;27.10;51.50;;;;;;5024947;28;20034;-46
2022/06/21 13:06:23;;;;;;;6.25;1.42;;;27.00;51.50;;;;;;5021516;28;20026;-44
2022/06/21 13:09:14;;;;;;;5.47;1.70;;;27.10;52.00;;;;;;5014278;28;20482;-45
2022/06/21 13:11:48;;;;;;;;;;;27.20;52.00;;;;;;5014099;28;20033;-46
2022/06/21 13:14:29;;;;;;;6.95;1.58;;;27.30;52.90;;;;;;5021392;28;19916;-44
2022/06/21 13:16:54;;;;;;;;;;;27.30;50.80;;;;;;5018627;28;20063;-45
2022/06/21 13:19:25;;;;;;;6.35;1.70;;;27.40;52.20;;;;;;5031082;28;19909;-45
2022/06/21 13:21:51;;;;;;;8.82;1.60;;;27.50;51.90;;;;;;5030293;28;20024;-44
2022/06/21 13:24:26;;;;;;;6.15;1.45;;;27.50;51.40;;;;;;5026582;28;20029;-46
2022/06/21 13:27:03;;;;;;;3.60;1.58;;;27.00;48.30;;;;;;5011386;28;20133;-44
2022/06/21 13:29:49;;;;;;;3.65;1.30;;;27.00;51.80;;;;;;5011402;28;20025;-45
2022/06/21 13:32:23;;;;;;;4.00;1.20;;;26.50;47.60;;;;;;5011480;28;20343;-43
2022/06/21 13:34:53;;;;;;;6.68;1.73;;;26.70;48.80;;;;;;5011389;28;20034;-44
2022/06/21 13:37:24;;;;;;;2.92;1.30;;;26.70;48.90;;;;;;5011607;28;20026;-44
2022/06/21 13:40:13;;;;;;;4.53;1.33;;;27.00;50.60;;;;;;5010731;28;20030;-45
2022/06/21 13:42:46;;;;;;;4.57;1.33;;;27.10;48.50;;;;;;5010726;28;20030;-44
2022/06/21 13:45:44;;;;;;;6.90;1.30;;;27.00;46.20;;;;;;5011045;28;20026;-44
2022/06/21 13:48:40;;;;;;;6.47;1.55;;;27.00;47.20;;;;;;5010195;28;20044;-45
2022/06/21 13:51:41;;;;;;;3.75;1.40;;;27.00;49.80;;;;;;5013502;28;20168;-44
2022/06/21 13:54:17;;;;;;;4.85;1.67;;;27.00;49.20;;;;;;5031104;28;20521;-43
2022/06/21 13:57:02;;;;;;;4.70;1.42;;;27.00;47.60;;;;;;5031312;28;20025;-44